Time;durP1;ratioP1;P1;durP2;ratioP2;P2;SDS_P1;SDS_P2;PMS_P1;PMS_P2;Temp;Humidity;BMP_temperature;BMP_pressure;BME280_temperature;BME280_humidity;BME280_pressure;Samples;Min_cycle;Max_cycle;Signal;HPM_P1;HPM_P2
2021/11/26 00:01:56;;;;;;;29.15;18.15;;;;;;;6.29;100.00;101140.41;5115168;28;20435;-68
2021/11/26 00:04:42;;;;;;;28.63;17.88;;;;;;;6.38;100.00;101139.59;5100152;28;20047;-68
2021/11/26 00:07:28;;;;;;;29.65;18.75;;;;;;;6.59;100.00;101135.34;5101378;28;20099;-69
2021/11/26 00:10:14;;;;;;;31.65;18.10;;;;;;;6.39;100.00;101138.72;5114439;28;20051;-69
2021/11/26 00:13:03;;;;;;;26.92;17.23;;;;;;;6.23;100.00;101144.69;5099717;28;20391;-69
2021/11/26 00:15:48;;;;;;;27.60;18.08;;;;;;;6.50;100.00;101132.72;5114234;28;20069;-69
2021/11/26 00:18:42;;;;;;;27.95;18.27;;;;;;;6.44;100.00;101135.28;5114478;28;20106;-69
2021/11/26 00:21:28;;;;;;;27.25;16.77;;;;;;;6.23;100.00;101140.34;5114504;28;20027;-69
2021/11/26 00:24:14;;;;;;;28.17;18.15;;;;;;;6.26;100.00;101140.38;5099974;28;20029;-68
2021/11/26 00:27:00;;;;;;;27.30;18.08;;;;;;;6.13;100.00;101148.06;5113436;28;20053;-69
2021/11/26 00:29:46;;;;;;;29.58;18.25;;;;;;;6.45;100.00;101143.94;5114000;28;20405;-68
2021/11/26 00:32:32;;;;;;;28.08;17.65;;;;;;;6.36;100.00;101139.59;5114417;28;20035;-69
2021/11/26 00:35:18;;;;;;;26.95;17.75;;;;;;;6.48;100.00;101137.06;5114242;28;20396;-68
2021/11/26 00:38:04;;;;;;;24.38;16.70;;;;;;;6.41;100.00;101134.38;5114400;28;20019;-68
2021/11/26 00:40:49;;;;;;;26.90;17.95;;;;;;;6.01;100.00;101137.56;5100687;28;20091;-68
2021/11/26 00:43:35;;;;;;;27.80;17.05;;;;;;;5.81;100.00;101136.56;5100329;28;20051;-68
2021/11/26 00:46:21;;;;;;;27.00;17.58;;;;;;;6.10;100.00;101124.66;5099042;28;20064;-68
2021/11/26 00:49:07;;;;;;;25.92;16.65;;;;;;;6.18;100.00;101118.63;5099886;28;20023;-68
2021/11/26 00:51:53;;;;;;;26.83;17.13;;;;;;;6.18;100.00;101115.19;5113971;28;20043;-69
2021/11/26 00:54:38;;;;;;;28.30;17.65;;;;;;;5.80;100.00;101117.47;5114499;28;20027;-68
2021/11/26 00:57:24;;;;;;;25.30;16.88;;;;;;;5.94;100.00;101105.47;5099011;28;20016;-70
2021/11/26 01:00:13;;;;;;;26.52;18.10;;;;;;;5.65;100.00;101099.13;5113803;28;20031;-68
2021/11/26 01:02:59;;;;;;;32.05;20.42;;;;;;;5.37;100.00;101099.75;5114598;28;20032;-69
2021/11/26 01:05:46;;;;;;;31.38;20.55;;;;;;;5.59;100.00;101091.31;5114117;28;20092;-68
2021/11/26 01:08:33;;;;;;;31.30;21.00;;;;;;;6.16;100.00;101080.47;5114300;28;20049;-68
2021/11/26 01:11:19;;;;;;;28.88;20.10;;;;;;;6.38;100.00;101077.16;5099960;28;20019;-68
2021/11/26 01:14:04;;;;;;;31.52;21.35;;;;;;;5.96;100.00;101062.16;5099370;28;20479;-68
2021/11/26 01:16:51;;;;;;;31.92;21.15;;;;;;;6.18;100.00;101064.00;5114247;28;20101;-68
2021/11/26 01:19:37;;;;;;;36.17;22.17;;;;;;;6.15;100.00;101052.72;5100582;28;20038;-69
2021/11/26 01:22:23;;;;;;;36.92;23.63;;;;;;;6.36;100.00;101048.50;5113920;28;20023;-68
2021/11/26 01:25:11;;;;;;;39.40;22.70;;;;;;;6.10;100.00;101044.03;5100350;28;20055;-69
2021/11/26 01:27:57;;;;;;;31.02;19.35;;;;;;;6.07;100.00;101041.41;5116834;28;20419;-69
2021/11/26 01:30:47;;;;;;;30.38;19.55;;;;;;;6.37;100.00;101036.34;5118133;28;20130;-69
2021/11/26 01:33:33;;;;;;;27.27;16.73;;;;;;;6.27;100.00;101038.03;5117685;28;20027;-69
2021/11/26 01:36:19;;;;;;;27.67;17.80;;;;;;;6.46;100.00;101029.47;5102852;28;20032;-69
2021/11/26 01:39:05;;;;;;;23.13;14.98;;;;;;;6.64;100.00;101026.06;5116756;28;20032;-69
2021/11/26 01:41:52;;;;;;;24.15;15.60;;;;;;;6.61;100.00;101013.91;5117967;28;20063;-69
2021/11/26 01:44:40;;;;;;;26.45;15.38;;;;;;;6.60;100.00;101009.56;5117327;28;20114;-69
2021/11/26 01:47:26;;;;;;;24.38;16.00;;;;;;;6.22;100.00;101007.69;5117860;28;20024;-69
2021/11/26 01:50:13;;;;;;;21.80;14.60;;;;;;;6.48;100.00;101006.94;5117680;28;20027;-68
2021/11/26 01:52:59;;;;;;;21.58;14.15;;;;;;;6.37;100.00;101006.00;5117901;28;20028;-68
2021/11/26 01:55:45;;;;;;;20.02;13.38;;;;;;;6.29;100.00;100999.03;5117237;28;20360;-68
2021/11/26 01:58:32;;;;;;;16.05;10.00;;;;;;;6.13;100.00;100997.22;5117825;28;20019;-68
2021/11/26 02:01:19;;;;;;;15.57;10.65;;;;;;;6.17;100.00;101001.56;5117428;28;20035;-67
2021/11/26 02:04:05;;;;;;;15.27;9.93;;;;;;;6.26;100.00;101004.22;5103847;27;20440;-67
2021/11/26 02:06:51;;;;;;;15.85;9.93;;;;;;;6.14;100.00;101004.19;5102913;28;20436;-68
2021/11/26 02:09:37;;;;;;;16.88;9.88;;;;;;;6.41;100.00;100992.13;5103089;28;20015;-68
2021/11/26 02:12:23;;;;;;;14.90;9.73;;;;;;;6.42;100.00;100990.38;5117485;28;20031;-68
2021/11/26 02:15:09;;;;;;;13.57;9.13;;;;;;;6.47;100.00;100986.94;5117422;28;20019;-69
2021/11/26 02:17:57;;;;;;;13.10;9.05;;;;;;;6.45;100.00;100988.69;5117367;28;20482;-67
2021/11/26 02:20:43;;;;;;;13.57;9.10;;;;;;;6.09;100.00;100985.94;5102393;28;20034;-68
2021/11/26 02:23:29;;;;;;;12.07;9.07;;;;;;;5.82;100.00;100967.59;5116951;28;20074;-69
2021/11/26 02:26:14;;;;;;;15.02;10.52;;;;;;;5.87;100.00;100973.66;5116292;28;20066;-67
2021/11/26 02:29:00;;;;;;;16.42;10.82;;;;;;;5.92;100.00;100965.91;5116780;28;20471;-68
2021/11/26 02:31:47;;;;;;;13.63;10.15;;;;;;;6.19;100.00;100972.09;5117168;28;20345;-69
2021/11/26 02:34:33;;;;;;;15.00;10.07;;;;;;;6.08;100.00;100963.41;5116562;28;20024;-68
2021/11/26 02:37:19;;;;;;;15.77;10.15;;;;;;;6.32;100.00;100954.81;5115999;28;20415;-68
2021/11/26 02:40:06;;;;;;;13.63;9.20;;;;;;;6.26;100.00;100957.41;5116204;28;20031;-68
2021/11/26 02:42:54;;;;;;;12.90;9.00;;;;;;;6.25;100.00;100955.63;5116716;28;20106;-68
2021/11/26 02:45:41;;;;;;;15.18;9.40;;;;;;;6.38;100.00;100949.63;5116107;28;20054;-69
2021/11/26 02:48:27;;;;;;;15.20;8.63;;;;;;;6.51;100.00;100933.19;5089057;28;20088;-68
2021/11/26 02:51:13;;;;;;;12.25;8.43;;;;;;;6.76;100.00;100940.16;5116052;28;20031;-68
2021/11/26 02:53:59;;;;;;;14.30;9.25;;;;;;;6.73;100.00;100935.84;5116473;28;20040;-68
2021/11/26 02:56:45;;;;;;;15.23;9.45;;;;;;;6.81;100.00;100934.09;5115934;28;20153;-68
2021/11/26 02:59:31;;;;;;;14.82;9.38;;;;;;;6.86;100.00;100929.75;5116095;28;20463;-68
2021/11/26 03:02:17;;;;;;;13.20;8.82;;;;;;;6.47;100.00;100923.63;5116278;28;20040;-68
2021/11/26 03:05:03;;;;;;;11.27;7.82;;;;;;;6.52;100.00;100927.09;5101631;28;20107;-68
2021/11/26 03:07:49;;;;;;;11.18;8.25;;;;;;;6.78;100.00;100917.59;5116478;28;20057;-70
2021/11/26 03:10:36;;;;;;;11.45;8.40;;;;;;;6.74;100.00;100910.63;5100794;28;20023;-69
2021/11/26 03:13:23;;;;;;;12.10;8.50;;;;;;;6.92;100.00;100902.84;5116241;28;20055;-69
2021/11/26 03:16:09;;;;;;;12.07;8.63;;;;;;;6.96;100.00;100909.81;5101142;28;20513;-70
2021/11/26 03:18:55;;;;;;;12.00;7.85;;;;;;;6.51;100.00;100918.41;5115672;28;20077;-70
2021/11/26 03:21:40;;;;;;;11.43;7.95;;;;;;;6.85;100.00;100915.00;5115432;28;20023;-70
2021/11/26 03:24:26;;;;;;;13.30;7.72;;;;;;;6.72;100.00;100908.06;5115460;28;20020;-70
2021/11/26 03:27:12;;;;;;;11.63;8.20;;;;;;;6.83;100.00;100908.91;5101541;28;20123;-69
2021/11/26 03:29:58;;;;;;;12.40;8.30;;;;;;;6.71;100.00;100903.69;5101371;28;20051;-70
2021/11/26 03:32:45;;;;;;;12.50;8.18;;;;;;;6.94;100.00;100885.47;5115410;28;20024;-71
2021/11/26 03:35:31;;;;;;;15.85;9.05;;;;;;;7.12;100.00;100886.34;5101566;28;20110;-70
2021/11/26 03:38:17;;;;;;;12.43;8.25;;;;;;;6.94;100.00;100877.66;5101370;28;20023;-68
2021/11/26 03:41:03;;;;;;;13.90;9.13;;;;;;;7.10;100.00;100879.41;5101960;28;20028;-69
2021/11/26 03:43:49;;;;;;;14.45;10.25;;;;;;;7.06;100.00;100882.88;5116200;28;20027;-69
2021/11/26 03:46:35;;;;;;;18.45;10.68;;;;;;;7.08;100.00;100876.78;5114943;28;20604;-69
2021/11/26 03:49:20;;;;;;;20.38;12.90;;;;;;;6.95;100.00;100866.41;5100856;28;20149;-70
2021/11/26 03:52:06;;;;;;;17.13;12.90;;;;;;;6.64;100.00;100862.94;5114776;28;20038;-69
2021/11/26 03:54:52;;;;;;;20.63;13.32;;;;;;;6.57;100.00;100844.69;5115699;28;20028;-69
2021/11/26 03:57:39;;;;;;;19.38;12.85;;;;;;;6.15;100.00;100840.28;5114917;28;20440;-69
2021/11/26 04:00:26;;;;;;;21.05;14.60;;;;;;;6.04;100.00;100835.94;5100418;28;20031;-69
2021/11/26 04:03:12;;;;;;;22.55;15.40;;;;;;;5.68;100.00;100822.78;5100936;28;20028;-69
2021/11/26 04:05:58;;;;;;;22.63;15.07;;;;;;;5.94;100.00;100831.59;5114974;28;20019;-69
2021/11/26 04:08:43;;;;;;;26.23;15.82;;;;;;;5.34;100.00;100820.03;5100395;28;20027;-70
2021/11/26 04:11:33;;;;;;;25.48;16.58;;;;;;;5.44;100.00;100821.81;5114973;28;20024;-68
2021/11/26 04:14:18;;;;;;;25.50;16.77;;;;;;;5.40;100.00;100814.00;5114964;28;20093;-69
2021/11/26 04:17:06;;;;;;;32.55;19.45;;;;;;;5.16;100.00;100804.34;5115111;28;20015;-69
2021/11/26 04:19:52;;;;;;;29.70;16.80;;;;;;;5.41;100.00;100797.56;5100706;28;20027;-69
2021/11/26 04:22:38;;;;;;;27.48;17.08;;;;;;;5.65;100.00;100804.56;5115028;28;20042;-68
2021/11/26 04:25:24;;;;;;;34.33;19.42;;;;;;;5.75;100.00;100812.44;5100275;28;20055;-69
2021/11/26 04:28:10;;;;;;;35.45;20.35;;;;;;;5.27;100.00;100814.81;5114221;28;20358;-70
2021/11/26 04:30:59;;;;;;;31.90;18.50;;;;;;;4.91;100.00;100812.00;5114627;28;20027;-69
2021/11/26 04:33:46;;;;;;;27.75;17.08;;;;;;;5.04;100.00;100799.09;5114876;28;20027;-70
2021/11/26 04:36:31;;;;;;;31.17;18.88;;;;;;;5.30;100.00;100797.50;5100775;28;20120;-70
2021/11/26 04:39:17;;;;;;;30.15;19.65;;;;;;;5.46;100.00;100795.00;5114324;28;20107;-69
2021/11/26 04:42:03;;;;;;;29.50;18.65;;;;;;;5.46;100.00;100801.03;5114406;28;20027;-69
2021/11/26 04:44:49;;;;;;;35.95;21.95;;;;;;;5.21;100.00;100791.41;5114239;28;20016;-70
2021/11/26 04:47:36;;;;;;;35.67;21.13;;;;;;;4.85;100.00;100798.97;5114886;28;20031;-70
2021/11/26 04:50:21;;;;;;;39.05;22.23;;;;;;;4.83;100.00;100804.13;5114331;28;20039;-69
2021/11/26 04:53:07;;;;;;;48.53;27.08;;;;;;;4.46;100.00;100801.28;5114731;28;20024;-69
2021/11/26 04:55:53;;;;;;;49.53;30.15;;;;;;;4.72;100.00;100807.53;5113480;28;20023;-69
2021/11/26 04:58:39;;;;;;;53.80;33.67;;;;;;;4.86;100.00;100803.28;5115950;28;20027;-70
2021/11/26 05:01:25;;;;;;;48.35;30.33;;;;;;;5.02;100.00;100800.81;5118441;28;20031;-70
2021/11/26 05:04:10;;;;;;;57.42;27.67;;;;;;;4.92;100.00;100805.94;5118079;28;20422;-69
2021/11/26 05:06:56;;;;;;;49.80;28.33;;;;;;;5.05;100.00;100800.84;5118201;28;20115;-69
2021/11/26 05:09:42;;;;;;;44.95;28.90;;;;;;;5.36;100.00;100794.91;5118448;28;20042;-71
2021/11/26 05:12:32;;;;;;;48.08;29.75;;;;;;;5.04;100.00;100793.91;5118380;28;20169;-69
2021/11/26 05:15:24;;;;;;;37.05;21.63;;;;;;;4.96;100.00;100792.13;5118545;28;20450;-69
2021/11/26 05:18:10;;;;;;;34.65;21.05;;;;;;;5.00;100.00;100784.38;5117944;28;20027;-69
2021/11/26 05:20:56;;;;;;;37.58;22.88;;;;;;;5.02;100.00;100782.63;5118093;28;20465;-70
2021/11/26 05:23:42;;;;;;;42.63;20.70;;;;;;;4.83;100.00;100773.00;5103320;28;20054;-72
2021/11/26 05:26:27;;;;;;;43.58;26.23;;;;;;;5.21;100.00;100755.03;5102556;28;20071;-69
2021/11/26 05:29:13;;;;;;;39.70;25.98;;;;;;;5.04;100.00;100757.56;5103888;28;20027;-70
2021/11/26 05:31:59;;;;;;;37.55;22.38;;;;;;;4.97;100.00;100749.72;5118240;28;20408;-69
2021/11/26 05:34:45;;;;;;;38.08;21.80;;;;;;;5.36;100.00;100748.16;5117505;28;20084;-69
2021/11/26 05:37:31;;;;;;;29.60;18.80;;;;;;;5.55;100.00;100750.84;5102410;28;20020;-69
2021/11/26 05:40:16;;;;;;;28.23;15.68;;;;;;;5.34;100.00;100747.31;5117255;28;20027;-69
2021/11/26 05:43:03;;;;;;;32.70;17.83;;;;;;;5.64;100.00;100743.06;5102415;28;20060;-69
2021/11/26 05:45:49;;;;;;;31.73;15.00;;;;;;;5.54;100.00;100749.97;5102269;28;20015;-69
2021/11/26 05:48:34;;;;;;;24.35;13.15;;;;;;;5.85;100.00;100735.34;5117042;28;20031;-69
2021/11/26 05:51:20;;;;;;;21.40;12.60;;;;;;;5.85;100.00;100720.63;5117330;28;20413;-69
2021/11/26 05:54:06;;;;;;;22.67;13.35;;;;;;;5.87;100.00;100724.09;5117505;28;20111;-69
2021/11/26 05:56:52;;;;;;;19.38;12.20;;;;;;;5.92;100.00;100729.28;5116802;28;20070;-70
2021/11/26 05:59:38;;;;;;;18.30;12.93;;;;;;;5.85;100.00;100727.53;5116860;28;20038;-69
2021/11/26 06:02:24;;;;;;;23.45;12.13;;;;;;;5.92;100.00;100718.91;5102191;28;20031;-70
2021/11/26 06:05:09;;;;;;;21.42;12.93;;;;;;;6.14;100.00;100721.50;5116804;28;20027;-70
2021/11/26 06:07:55;;;;;;;21.23;12.10;;;;;;;6.36;100.00;100714.56;5116259;28;20031;-70
2021/11/26 06:10:41;;;;;;;17.15;11.93;;;;;;;5.57;100.00;100712.72;5100988;28;20034;-70
2021/11/26 06:13:27;;;;;;;20.70;11.80;;;;;;;5.96;100.00;100710.25;5116184;28;20027;-69
2021/11/26 06:16:13;;;;;;;18.38;11.85;;;;;;;5.79;100.00;100707.56;5102144;28;20125;-69
2021/11/26 06:18:58;;;;;;;20.15;12.13;;;;;;;5.61;100.00;100702.34;5102701;28;20074;-71
2021/11/26 06:21:45;;;;;;;21.00;13.05;;;;;;;5.63;100.00;100698.03;5101039;28;20100;-69
2021/11/26 06:24:31;;;;;;;33.28;16.05;;;;;;;6.22;100.00;100700.72;5102173;28;20423;-69
2021/11/26 06:27:17;;;;;;;29.70;16.42;;;;;;;5.95;100.00;100704.16;5116979;28;20031;-68
2021/11/26 06:30:05;;;;;;;25.23;15.45;;;;;;;6.16;100.00;100706.78;5116316;28;20024;-69
2021/11/26 06:32:53;;;;;;;26.38;14.43;;;;;;;6.35;100.00;100713.69;5102766;28;20131;-69
2021/11/26 06:35:39;;;;;;;23.42;13.45;;;;;;;6.81;100.00;100710.19;5116174;28;20031;-69
2021/11/26 06:38:25;;;;;;;21.83;13.88;;;;;;;6.82;100.00;100716.22;5117044;28;20383;-69
2021/11/26 06:41:11;;;;;;;30.58;14.20;;;;;;;6.85;100.00;100718.84;5116157;28;20030;-69
2021/11/26 06:43:57;;;;;;;28.42;16.13;;;;;;;6.81;100.00;100732.72;5101923;28;20439;-69
2021/11/26 06:46:42;;;;;;;29.42;16.83;;;;;;;7.00;100.00;100729.22;5116423;28;20035;-68
2021/11/26 06:49:28;;;;;;;24.40;15.50;;;;;;;7.06;100.00;100719.63;5101946;28;20444;-69
2021/11/26 06:52:18;;;;;;;29.35;18.60;;;;;;;6.98;100.00;100721.41;5115354;28;20031;-69
2021/11/26 06:55:07;;;;;;;31.20;16.60;;;;;;;7.24;100.00;100729.97;5101563;28;20110;-69
2021/11/26 06:57:53;;;;;;;23.17;15.23;;;;;;;7.39;100.00;100718.66;5115907;28;20023;-69
2021/11/26 07:00:39;;;;;;;28.17;17.10;;;;;;;7.73;100.00;100708.03;5117923;28;20024;-69
2021/11/26 07:03:24;;;;;;;41.92;22.75;;;;;;;7.70;100.00;100695.00;5102006;28;20031;-69
2021/11/26 07:06:10;;;;;;;39.17;21.55;;;;;;;7.93;100.00;100689.63;5115474;28;20042;-71
2021/11/26 07:08:56;;;;;;;41.80;19.10;;;;;;;7.98;100.00;100687.84;5115562;28;20114;-69
2021/11/26 07:11:42;;;;;;;26.83;14.95;;;;;;;7.18;100.00;100677.03;5117191;27;20027;-69
2021/11/26 07:14:28;;;;;;;25.80;17.38;;;;;;;7.96;100.00;100685.25;5115689;28;20023;-69
2021/11/26 07:17:14;;;;;;;24.85;15.38;;;;;;;8.28;100.00;100670.22;5101908;28;20063;-70
2021/11/26 07:20:00;;;;;;;26.30;16.40;;;;;;;8.38;100.00;100664.06;5115851;28;20498;-68
2021/11/26 07:22:46;;;;;;;31.85;20.08;;;;;;;8.35;100.00;100653.63;5101912;28;20063;-69
2021/11/26 07:25:32;;;;;;;26.50;16.48;;;;;;;7.91;100.00;100641.81;5115781;28;20043;-69
2021/11/26 07:28:19;;;;;;;26.00;16.20;;;;;;;7.61;100.00;100615.97;5099702;28;20471;-70
2021/11/26 07:31:05;;;;;;;29.05;16.38;;;;;;;7.48;100.00;100604.75;5115792;28;20372;-68
2021/11/26 07:33:51;;;;;;;26.00;15.98;;;;;;;7.55;100.00;100587.38;5100178;28;20023;-69
2021/11/26 07:36:37;;;;;;;26.80;15.60;;;;;;;8.29;100.00;100572.81;5114683;28;20016;-69
2021/11/26 07:39:23;;;;;;;22.48;15.35;;;;;;;8.80;100.00;100568.72;5099838;28;20027;-69
2021/11/26 07:42:11;;;;;;;24.08;15.45;;;;;;;9.06;100.00;100564.88;5115608;28;20019;-69
2021/11/26 07:44:57;;;;;;;23.95;15.57;;;;;;;9.13;100.00;100555.19;5114390;28;20476;-69
2021/11/26 07:47:43;;;;;;;25.25;16.20;;;;;;;9.08;100.00;100547.41;5101481;28;20028;-69
2021/11/26 07:50:30;;;;;;;27.08;15.85;;;;;;;9.40;100.00;100536.47;5099747;28;20448;-70
2021/11/26 07:53:15;;;;;;;29.33;18.23;;;;;;;9.76;100.00;100528.91;5100737;28;20126;-69
2021/11/26 07:56:01;;;;;;;29.48;17.35;;;;;;;10.20;100.00;100522.03;5115137;28;20034;-69
2021/11/26 07:58:47;;;;;;;26.88;17.58;;;;;;;10.24;100.00;100531.56;5100396;28;20075;-69
2021/11/26 08:01:33;;;;;;;26.88;17.63;;;;;;;10.69;100.00;100530.63;5114706;28;20042;-70
2021/11/26 08:04:19;;;;;;;33.50;18.83;;;;;;;11.28;100.00;100543.28;5100157;28;20374;-69
2021/11/26 08:07:06;;;;;;;31.77;19.33;;;;;;;11.32;100.00;100537.06;5114688;28;20409;-69
2021/11/26 08:09:52;;;;;;;27.85;17.08;;;;;;;11.47;100.00;100550.69;5115656;28;20074;-69
2021/11/26 08:12:39;;;;;;;30.73;16.83;;;;;;;11.66;100.00;100553.78;5101624;28;20110;-71
2021/11/26 08:15:25;;;;;;;25.25;12.68;;;;;;;11.52;100.00;100559.31;5115119;28;20343;-69
2021/11/26 08:18:13;;;;;;;17.83;9.57;;;;;;;11.66;100.00;100567.75;5099756;28;20016;-68
2021/11/26 08:20:59;;;;;;;12.18;7.65;;;;;;;11.30;100.00;100560.72;5114555;28;20031;-69
2021/11/26 08:23:44;;;;;;;11.23;7.43;;;;;;;11.87;100.00;100569.00;5101893;28;20110;-69
2021/11/26 08:26:31;;;;;;;7.45;5.68;;;;;;;12.36;100.00;100561.56;5113961;28;20047;-69
2021/11/26 08:29:16;;;;;;;11.23;6.10;;;;;;;13.66;93.54;100549.72;5115721;28;20035;-68
2021/11/26 08:32:03;;;;;;;9.98;6.75;;;;;;;14.12;88.79;100543.78;5114674;28;20462;-69
2021/11/26 08:34:48;;;;;;;11.00;6.20;;;;;;;13.38;92.18;100538.34;5113787;28;20452;-69
2021/11/26 08:37:34;;;;;;;10.85;6.78;;;;;;;13.25;92.63;100528.25;5114389;28;20031;-69
2021/11/26 08:40:20;;;;;;;14.68;9.88;;;;;;;12.52;97.96;100502.41;5114026;28;20035;-68
2021/11/26 08:43:07;;;;;;;20.92;13.00;;;;;;;12.83;97.95;100485.69;5114923;28;20084;-68
2021/11/26 08:45:53;;;;;;;22.00;15.27;;;;;;;11.47;100.00;100474.63;5099686;28;20139;-68
2021/11/26 08:48:39;;;;;;;24.67;16.77;;;;;;;10.67;100.00;100445.97;5114420;28;20024;-68
2021/11/26 08:51:27;;;;;;;26.02;17.70;;;;;;;11.29;100.00;100419.97;5113997;28;20027;-70
2021/11/26 08:54:13;;;;;;;23.60;15.13;;;;;;;11.30;100.00;100407.75;5113724;28;20031;-68
2021/11/26 08:56:59;;;;;;;37.08;13.63;;;;;;;12.11;100.00;100395.03;5113906;28;20020;-70
2021/11/26 08:59:45;;;;;;;24.92;14.30;;;;;;;11.66;100.00;100389.28;5099472;28;20028;-70
2021/11/26 09:02:32;;;;;;;21.48;12.95;;;;;;;11.46;100.00;100378.47;5114085;28;20035;-71
2021/11/26 09:05:18;;;;;;;18.05;11.95;;;;;;;11.53;100.00;100369.50;5100634;28;20023;-70
2021/11/26 09:08:05;;;;;;;21.13;12.68;;;;;;;11.53;100.00;100382.63;5101208;28;20051;-69
2021/11/26 09:10:51;;;;;;;19.58;12.20;;;;;;;11.84;100.00;100387.94;5113791;28;20028;-70
2021/11/26 09:13:37;;;;;;;18.20;12.25;;;;;;;11.39;100.00;100389.16;5114245;28;20015;-71
2021/11/26 09:16:23;;;;;;;19.15;12.02;;;;;;;11.47;100.00;100379.31;5115059;28;20172;-70
2021/11/26 09:19:09;;;;;;;23.63;11.88;;;;;;;11.53;100.00;100385.25;5114572;28;20024;-70
2021/11/26 09:21:54;;;;;;;18.98;12.20;;;;;;;11.92;100.00;100393.84;5114504;28;20031;-70
2021/11/26 09:24:40;;;;;;;21.35;13.05;;;;;;;11.94;100.00;100395.50;5114127;28;20029;-69
2021/11/26 09:27:26;;;;;;;28.85;16.02;;;;;;;11.26;100.00;100396.47;5113682;28;20038;-70
2021/11/26 09:30:20;;;;;;;19.25;12.57;;;;;;;11.45;100.00;100389.84;5114067;28;20073;-70
2021/11/26 09:33:06;;;;;;;19.48;13.07;;;;;;;11.61;100.00;100396.44;5100048;28;20035;-70
2021/11/26 09:35:52;;;;;;;22.60;12.20;;;;;;;11.04;100.00;100386.53;5114024;28;20150;-70
2021/11/26 09:38:40;;;;;;;23.83;13.48;;;;;;;11.39;100.00;100389.16;5113572;28;20023;-70
2021/11/26 09:41:26;;;;;;;20.35;12.95;;;;;;;12.02;100.00;100376.94;5114737;28;20056;-71
2021/11/26 09:44:13;;;;;;;23.80;12.77;;;;;;;12.10;100.00;100362.66;5113996;28;20119;-70
2021/11/26 09:46:59;;;;;;;20.17;13.15;;;;;;;12.47;100.00;100342.28;5116127;28;20027;-70
2021/11/26 09:49:45;;;;;;;21.05;12.85;;;;;;;12.74;100.00;100335.28;5117568;28;20031;-70
2021/11/26 09:52:31;;;;;;;24.20;13.25;;;;;;;12.63;100.00;100325.13;5103414;28;20452;-70
2021/11/26 09:55:19;;;;;;;23.05;11.98;;;;;;;12.61;100.00;100310.28;5103657;28;20458;-70
2021/11/26 09:58:05;;;;;;;19.90;12.68;;;;;;;12.38;100.00;100308.41;5101577;28;20160;-70
2021/11/26 10:00:52;;;;;;;22.25;11.05;;;;;;;12.35;100.00;100297.13;5118387;27;20027;-70
2021/11/26 10:03:48;;;;;;;21.88;11.27;;;;;;;12.42;100.00;100270.63;5103311;28;20038;-69
2021/11/26 10:06:40;;;;;;;21.17;11.95;;;;;;;12.00;100.00;100250.09;5117293;28;20058;-70
2021/11/26 10:09:26;;;;;;;21.98;11.60;;;;;;;12.35;100.00;100239.34;5116980;28;20102;-70
2021/11/26 10:12:14;;;;;;;21.55;10.55;;;;;;;12.97;100.00;100235.47;5117990;28;20020;-71
2021/11/26 10:15:00;;;;;;;18.42;10.13;;;;;;;12.22;100.00;100238.88;5116919;28;20038;-69
2021/11/26 10:17:46;;;;;;;20.90;12.32;;;;;;;12.36;100.00;100223.53;5117144;28;20106;-71
2021/11/26 10:20:32;;;;;;;20.30;10.07;;;;;;;11.89;100.00;100213.66;5117425;28;20452;-69
2021/11/26 10:23:20;;;;;;;16.70;9.60;;;;;;;12.15;100.00;100205.84;5116954;28;20028;-70
2021/11/26 10:26:19;;;;;;;18.02;9.40;;;;;;;12.51;100.00;100194.16;5116494;28;20050;-70
2021/11/26 10:29:05;;;;;;;21.20;9.88;;;;;;;12.35;100.00;100182.44;5116958;28;20028;-70
2021/11/26 10:32:11;;;;;;;19.88;10.43;;;;;;;13.09;100.00;100175.44;5116927;28;20041;-69
2021/11/26 10:34:57;;;;;;;15.85;9.90;;;;;;;13.30;100.00;100160.66;5116861;28;20024;-72
2021/11/26 10:37:54;;;;;;;14.57;9.75;;;;;;;13.27;100.00;100158.13;5116642;28;20024;-72
2021/11/26 10:40:49;;;;;;;15.95;10.30;;;;;;;13.54;100.00;100152.69;5102253;28;20051;-71
2021/11/26 10:43:48;;;;;;;14.93;10.18;;;;;;;13.77;100.00;100147.38;5101669;28;20034;-70
2021/11/26 10:58:52;;;;;;;14.57;9.02;;;;;;;12.94;100.00;100107.59;5116244;28;20439;-70
2021/11/26 11:01:45;;;;;;;15.63;10.13;;;;;;;12.75;100.00;100101.31;5115552;28;20063;-70
2021/11/26 11:04:31;;;;;;;14.82;9.30;;;;;;;13.26;100.00;100088.88;5115745;28;20028;-71
2021/11/26 11:07:18;;;;;;;19.23;9.90;;;;;;;12.99;100.00;100086.44;5116113;28;20026;-69
2021/11/26 11:10:04;;;;;;;15.00;9.32;;;;;;;13.02;100.00;100079.28;5115733;28;20100;-70
2021/11/26 11:12:50;;;;;;;14.93;10.18;;;;;;;12.77;100.00;100078.44;5115892;28;20023;-71
2021/11/26 11:15:37;;;;;;;21.90;11.10;;;;;;;12.43;100.00;100077.06;5116813;28;20114;-69
2021/11/26 11:18:23;;;;;;;18.30;10.60;;;;;;;12.13;100.00;100047.47;5106352;28;20476;-70
2021/11/26 11:21:10;;;;;;;17.27;10.93;;;;;;;12.05;100.00;100033.75;5088057;28;20024;-69
2021/11/26 11:23:56;;;;;;;20.15;11.05;;;;;;;12.41;100.00;100023.72;5076744;28;20107;-69
2021/11/26 11:26:47;;;;;;;18.13;9.95;;;;;;;12.56;100.00;100010.91;5104305;28;20055;-69
2021/11/26 11:29:33;;;;;;;16.10;9.45;;;;;;;12.27;100.00;100002.34;5092436;28;20043;-69
2021/11/26 11:32:19;;;;;;;14.65;8.70;;;;;;;12.57;100.00;99990.72;5089659;28;20088;-68
2021/11/26 11:35:11;;;;;;;12.68;9.38;;;;;;;13.20;100.00;99983.91;5089812;28;20037;-68
2021/11/26 11:37:59;;;;;;;13.68;9.35;;;;;;;13.49;100.00;99986.22;5092198;28;20808;-69
2021/11/26 11:40:48;;;;;;;19.48;11.15;;;;;;;13.61;100.00;99980.44;5086743;28;20031;-69
2021/11/26 11:43:46;;;;;;;15.63;10.27;;;;;;;13.61;100.00;99979.59;5105027;28;20031;-69
2021/11/26 11:46:36;;;;;;;16.60;10.98;;;;;;;13.82;100.00;99981.31;5107276;28;20427;-68
2021/11/26 11:49:33;;;;;;;15.55;10.57;;;;;;;13.85;100.00;99973.28;5091241;28;20371;-70
2021/11/26 11:52:19;;;;;;;18.50;11.35;;;;;;;14.11;100.00;99967.78;5087856;28;20042;-70
2021/11/26 11:55:17;;;;;;;17.05;11.75;;;;;;;13.98;100.00;99954.28;5103104;28;20412;-69
2021/11/26 11:58:15;;;;;;;17.67;11.25;;;;;;;14.26;100.00;99933.72;5106605;28;20024;-68
2021/11/26 12:01:01;;;;;;;16.85;10.18;;;;;;;13.72;100.00;99919.47;5085949;28;20379;-70
2021/11/26 12:03:48;;;;;;;17.20;11.68;;;;;;;13.70;100.00;99922.16;5105213;28;20035;-70
2021/11/26 12:06:38;;;;;;;16.02;10.50;;;;;;;13.76;100.00;99932.44;5103572;28;20042;-70
2021/11/26 12:09:33;;;;;;;22.17;12.00;;;;;;;13.66;100.00;99967.09;5105782;28;20027;-68
2021/11/26 12:12:23;;;;;;;16.75;11.70;;;;;;;13.85;100.00;99992.59;5103115;28;20038;-69
2021/11/26 12:15:08;;;;;;;18.23;11.40;;;;;;;14.22;100.00;99979.59;5104542;28;20079;-70
2021/11/26 12:18:05;;;;;;;18.45;11.60;;;;;;;14.15;100.00;99946.47;5089873;28;20493;-70
2021/11/26 12:20:58;;;;;;;18.80;12.60;;;;;;;13.85;100.00;99946.97;5101524;28;20114;-69
2021/11/26 12:24:03;;;;;;;20.08;13.27;;;;;;;13.92;100.00;99941.38;5090859;28;20043;-70
2021/11/26 12:26:54;;;;;;;20.80;12.90;;;;;;;13.85;100.00;99924.13;5103962;28;20044;-70
2021/11/26 12:29:46;;;;;;;18.33;13.23;;;;;;;13.81;100.00;99911.16;5104204;28;20047;-68
2021/11/26 12:32:32;;;;;;;22.38;13.65;;;;;;;13.00;100.00;99870.78;5088180;28;20114;-70
2021/11/26 12:35:18;;;;;;;19.50;13.60;;;;;;;13.26;100.00;99844.22;5105560;28;20047;-69
2021/11/26 12:38:04;;;;;;;19.88;13.45;;;;;;;13.42;100.00;99860.25;5105783;28;20020;-70
2021/11/26 12:40:50;;;;;;;18.98;12.98;;;;;;;13.71;100.00;99909.84;5104836;28;20043;-70
2021/11/26 12:43:48;;;;;;;21.13;14.32;;;;;;;14.03;100.00;99914.56;5091239;28;20023;-70
2021/11/26 12:46:37;;;;;;;18.98;12.55;;;;;;;13.21;100.00;99906.72;5091176;28;20035;-69
2021/11/26 12:52:21;;;;;;;19.25;13.57;;;;;;;13.99;100.00;99903.31;5088177;28;20456;-69
2021/11/26 12:55:07;;;;;;;19.70;13.52;;;;;;;13.87;100.00;99903.00;5092292;28;20043;-70